| Record Date MM/DD/YYYY | Record Time HH:MM:SS | Record Julian Date NNN day of the year | Air Temperature Max (Degrees Fahrenheit F) | Time Max Air Temperature HH:MM:SS This is the time of max air temp for the prior hour interval listed for record [Time]. | Air Temperature Min (Degrees Fahrenheit F) | Time Min Air Temperature HH:MM:SS This is the time of min air temp for the prior hour interval listed for record [Time]. | Air Temperature Observed (Degrees Fahrenheit F) This is an instantaneous reading at the record [Time]. | Relative Humidity Max (Percent) | Time Max Relative Humidity HH:MM:SS This is the time of max relative humidity for the prior hour interval listed for record [Time]. | Relative Humidity Min (Percent) | Time Min Relative Humidity HH:MM:SS This is the time of min relative humidity for the prior hour interval listed for record [Time]. | Relative Humidity Observed (Percent) This is an instantaneous reading at the record [Time]. | Precipitation (Inches n.nn) rain fall that occurred during the prior hour interval listed for record [Time]. | Wind Speed (Miles Per Hour) Resultant Speed that occurred during the prior hour interval listed for record [Time]. | Wind Direction (Degrees) Resultant Direction that occurred during the prior hour interval listed for record [Time]. | Solar Radiation (Langley's) that occurred during the prior hour interval listed for record [Time]. | Soil Temperature Average at 2 inch depth (Degrees Fahrenheit F) that occurred during the prior hour interval listed for record [Time]. | Soil Temperature Observed at 2 inch depth (Degrees Fahrenheit F) This is an instantaneous reading at the record [Time]. | Soil Temperature Average at 4 inch depth (Degrees Fahrenheit F) that occurred during the prior hour interval listed for record [Time]. | Soil Temperature Observed at 4 inch depth (Degrees Fahrenheit F) This is an instantaneous reading at the record [Time]. |
|---|---|---|---|---|---|---|---|---|---|---|---|---|---|---|---|---|---|---|---|---|
| 08/24/2026 | 0:00:00 | 236 | 79 | 23:00:03 | 79 | 23:59:05 | 79 | 89 | 23:58:04 | 86 | 23:15:05 | 88.6 | 0 | 0.0 | 0 | 0 | 88 | 88 | 88 | 88 |
| 08/24/2026 | 1:00:00 | 236 | 79 | 0:34:03 | 78 | 0:09:02 | 79 | 90 | 0:26:04 | 88 | 0:04:00 | 89.7 | 0 | 0.0 | 0 | 0 | 88 | 87 | 88 | 87 |
| 08/24/2026 | 2:00:00 | 236 | 79 | 1:00:00 | 77 | 1:28:03 | 78 | 92 | 1:59:04 | 89 | 1:06:03 | 91.7 | 0 | 0.0 | 0 | 0 | 87 | 87 | 87 | 86 |
| 08/24/2026 | 3:00:00 | 236 | 78 | 2:04:05 | 78 | 2:56:05 | 78 | 92 | 2:04:03 | 90 | 2:59:04 | 90.2 | 0 | 0.0 | 0 | 0 | 86 | 86 | 84 | 84 |
| 08/24/2026 | 4:00:00 | 236 | 78 | 3:00:04 | 77 | 3:25:04 | 77 | 91 | 3:39:02 | 90 | 3:14:03 | 91.1 | 0 | 0.0 | 0 | 0 | 86 | 86 | 84 | 83 |
| 08/24/2026 | 5:00:00 | 236 | 78 | 4:52:03 | 77 | 4:43:00 | 77 | 92 | 4:52:02 | 91 | 4:15:05 | 91.6 | 0 | 0.0 | 0 | 0 | 86 | 85 | 83 | 84 |
| 08/24/2026 | 6:00:00 | 236 | 78 | 5:47:05 | 77 | 5:15:00 | 78 | 93 | 5:38:02 | 91 | 5:12:04 | 92.4 | 0 | 0.0 | 0 | 0 | 85 | 85 | 84 | 84 |
| 08/24/2026 | 7:00:00 | 236 | 80 | 6:59:04 | 78 | 6:01:00 | 80 | 93 | 6:45:00 | 92 | 6:59:03 | 91.9 | 0 | 0.0 | 0 | 6 | 85 | 85 | 84 | 85 |
| 08/24/2026 | 8:00:00 | 236 | 82 | 7:59:04 | 80 | 7:00:01 | 82 | 92 | 7:00:01 | 86 | 7:58:03 | 85.9 | 0 | 0.0 | 0 | 8 | 85 | 85 | 85 | 85 |
| 08/24/2026 | 9:00:00 | 236 | 87 | 8:58:00 | 82 | 8:00:01 | 87 | 86 | 8:00:04 | 71 | 8:59:00 | 71.23 | 0 | 0.0 | 0 | 21 | 85 | 86 | 85 | 85 |
| 08/24/2026 | 10:00:00 | 236 | 88 | 9:59:04 | 86 | 9:19:03 | 88 | 72 | 9:24:02 | 68 | 9:52:05 | 69.29 | 0 | 0.0 | 0 | 19 | 86 | 86 | 86 | 86 |
| 08/24/2026 | 11:00:00 | 236 | 88 | 10:00:05 | 85 | 10:49:02 | 85 | 75 | 10:50:00 | 69 | 10:00:03 | 74.17 | 0 | 0.0 | 2 | 10 | 87 | 87 | 86 | 86 |
| 08/24/2026 | 12:00:00 | 236 | 85 | 11:00:01 | 79 | 11:59:05 | 79 | 85 | 11:59:00 | 74 | 11:02:00 | 85 | 0 | 0.0 | 41 | 6 | 87 | 87 | 86 | 86 |
| 08/24/2026 | 13:00:00 | 236 | 80 | 12:59:05 | 78 | 12:28:02 | 80 | 91 | 12:44:00 | 85 | 12:00:01 | 89.7 | 0.01 | 0.0 | 327 | 13 | 87 | 87 | 86 | 86 |
| 08/24/2026 | 14:00:00 | 236 | 82 | 13:30:01 | 80 | 13:00:00 | 80 | 90 | 13:00:04 | 81 | 13:33:02 | 82.3 | 0 | 0.0 | 318 | 18 | 87 | 87 | 86 | 86 |
| 08/24/2026 | 15:00:00 | 236 | 80 | 14:02:05 | 79 | 14:47:04 | 80 | 85 | 14:16:02 | 81 | 14:55:02 | 82.2 | 0 | 0.0 | 59 | 7 | 87 | 87 | 86 | 86 |
| 08/24/2026 | 16:00:00 | 236 | 82 | 15:47:05 | 80 | 15:00:01 | 82 | 83 | 15:00:05 | 76 | 15:49:01 | 77.31 | 0 | 0.0 | 0 | 16 | 87 | 87 | 86 | 86 |
| 08/24/2026 | 17:00:00 | 236 | 82 | 16:00:01 | 81 | 17:00:00 | 81 | 84 | 16:55:03 | 77 | 16:01:04 | 82.3 | 0 | 0.0 | 0 | 6 | 86 | 86 | 86 | 86 |
| 08/24/2026 | 18:00:00 | 236 | 81 | 17:01:02 | 79 | 18:00:00 | 79 | 86 | 17:58:05 | 81 | 17:08:03 | 86.2 | 0 | 0.0 | 0 | 2 | 86 | 86 | 86 | 86 |
| 08/24/2026 | 19:00:00 | 236 | 79 | 18:00:03 | 78 | 18:59:02 | 78 | 86 | 18:00:04 | 85 | 18:27:04 | 86.3 | 0 | 0.0 | 0 | 0 | 85 | 85 | 86 | 85 |
| 08/24/2026 | 20:00:00 | 236 | 78 | 19:00:01 | 76 | 20:00:00 | 76 | 90 | 19:57:05 | 86 | 19:00:00 | 90.2 | 0 | 0.0 | 33 | 0 | 85 | 84 | 85 | 85 |
| 08/24/2026 | 21:00:00 | 236 | 77 | 20:00:00 | 75 | 20:59:05 | 75 | 90 | 20:07:01 | 89 | 20:26:01 | 89.9 | 0 | 0.0 | 75 | 0 | 84 | 84 | 85 | 85 |
| 08/24/2026 | 22:00:00 | 236 | 75 | 21:00:01 | 74 | 21:41:05 | 74 | 93 | 21:57:00 | 90 | 21:00:00 | 92.5 | 0 | 0.0 | 0 | 0 | 84 | 83 | 84 | 84 |
| 08/24/2026 | 23:00:00 | 236 | 74 | 22:11:04 | 72 | 22:59:02 | 72 | 94 | 22:51:00 | 92 | 22:28:05 | 93.1 | 0 | 0.0 | 0 | 0 | 83 | 83 | 84 | 84 |
| 08/25/2026 | 0:00:00 | 237 | 73 | 23:59:05 | 72 | 23:27:00 | 73 | 95 | 23:52:04 | 93 | 23:00:00 | 94.4 | 0 | 0.0 | 0 | 0 | 82 | 82 | 83 | 83 |
| 08/25/2026 | 1:00:00 | 237 | 73 | 0:24:05 | 71 | 1:00:00 | 71 | 95 | 0:26:02 | 94 | 0:58:03 | 94.1 | 0 | 0.0 | 0 | 0 | 82 | 82 | 83 | 83 |
| 08/25/2026 | 2:00:00 | 237 | 72 | 1:34:03 | 71 | 1:58:02 | 71 | 95 | 1:28:04 | 94 | 1:00:01 | 94.6 | 0 | 0.0 | 0 | 0 | 82 | 81 | 83 | 82 |
| 08/25/2026 | 3:00:00 | 237 | 72 | 2:54:05 | 71 | 2:04:01 | 72 | 96 | 2:41:01 | 95 | 2:00:04 | 95.4 | 0 | 0.0 | 0 | 0 | 81 | 81 | 82 | 82 |
| 08/25/2026 | 4:00:00 | 237 | 73 | 3:47:00 | 72 | 3:02:00 | 73 | 96 | 3:37:03 | 95 | 3:12:02 | 95.7 | 0 | 0.0 | 0 | 0 | 81 | 81 | 82 | 82 |
| 08/25/2026 | 5:00:00 | 237 | 73 | 4:47:02 | 73 | 4:00:02 | 73 | 96 | 4:35:00 | 96 | 4:00:00 | 95.9 | 0 | 0.0 | 0 | 0 | 81 | 81 | 82 | 82 |
| 08/25/2026 | 6:00:00 | 237 | 73 | 5:56:00 | 73 | 5:00:05 | 73 | 96 | 5:38:02 | 96 | 5:02:04 | 96 | 0 | 0.0 | 0 | 0 | 81 | 81 | 82 | 82 |
| 08/25/2026 | 7:00:00 | 237 | 74 | 6:53:03 | 73 | 6:07:01 | 74 | 96 | 6:26:02 | 96 | 6:58:05 | 96 | 0 | 0.0 | 0 | 2 | 81 | 81 | 82 | 82 |
| 08/25/2026 | 8:00:00 | 237 | 76 | 8:00:00 | 74 | 7:00:01 | 76 | 96 | 7:07:00 | 95 | 7:59:00 | 94.8 | 0 | 0.0 | 0 | 5 | 81 | 81 | 82 | 82 |
| 08/25/2026 | 9:00:00 | 237 | 78 | 8:58:05 | 76 | 8:00:02 | 78 | 95 | 8:00:00 | 89 | 9:00:00 | 89.1 | 0 | 0.0 | 0 | 9 | 82 | 82 | 82 | 82 |
| 08/25/2026 | 10:00:00 | 237 | 81 | 9:59:05 | 78 | 9:00:02 | 81 | 89 | 9:07:02 | 84 | 9:57:04 | 85.5 | 0 | 0.0 | 279 | 13 | 82 | 82 | 82 | 82 |
| 08/25/2026 | 11:00:00 | 237 | 83 | 10:55:05 | 81 | 10:00:01 | 83 | 85 | 10:00:00 | 71 | 10:55:00 | 72.06 | 0 | 0.0 | 319 | 15 | 83 | 83 | 82 | 83 |
| 08/25/2026 | 12:00:00 | 237 | 86 | 11:44:02 | 83 | 11:00:00 | 86 | 73 | 11:00:05 | 64 | 11:40:05 | 69.51 | 0 | 0.0 | 0 | 21 | 83 | 84 | 83 | 83 |
| 08/25/2026 | 13:00:00 | 237 | 88 | 12:39:02 | 86 | 12:00:01 | 87 | 70 | 12:01:01 | 65 | 12:40:02 | 66.99 | 0 | 0.0 | 343 | 27 | 85 | 85 | 83 | 84 |
| 08/25/2026 | 14:00:00 | 237 | 92 | 13:23:03 | 87 | 13:00:00 | 91 | 68 | 13:00:05 | 54 | 13:44:02 | 58.2 | 0 | 0.0 | 314 | 42 | 87 | 88 | 84 | 85 |
| 08/25/2026 | 15:00:00 | 237 | 91 | 14:03:01 | 90 | 14:42:05 | 90 | 60 | 14:12:04 | 55 | 14:49:03 | 56.93 | 0 | 0.0 | 0 | 23 | 88 | 89 | 85 | 86 |
| 08/25/2026 | 16:00:00 | 237 | 90 | 15:05:02 | 88 | 15:48:05 | 89 | 69 | 15:54:02 | 57 | 15:01:04 | 67.77 | 0 | 0.0 | 0 | 12 | 89 | 89 | 86 | 86 |
| 08/25/2026 | 17:00:00 | 237 | 91 | 16:33:01 | 88 | 16:59:05 | 88 | 68 | 16:01:00 | 58 | 16:35:02 | 66.42 | 0 | 0.0 | 0 | 12 | 89 | 89 | 86 | 87 |
| 08/25/2026 | 18:00:00 | 237 | 89 | 17:21:00 | 86 | 18:00:00 | 86 | 73 | 18:00:00 | 62 | 17:25:05 | 73.01 | 0 | 0.0 | 0 | 5 | 88 | 88 | 87 | 87 |
| 08/25/2026 | 19:00:00 | 237 | 86 | 18:00:00 | 82 | 19:00:00 | 82 | 82 | 19:00:00 | 73 | 18:00:00 | 81.5 | 0 | 0.0 | 0 | 1 | 88 | 87 | 87 | 86 |
| 08/25/2026 | 20:00:00 | 237 | 82 | 19:00:00 | 79 | 19:58:03 | 79 | 86 | 20:00:00 | 82 | 19:00:00 | 85.9 | 0 | 0.0 | 0 | 0 | 87 | 86 | 86 | 86 |
| 08/25/2026 | 21:00:00 | 237 | 80 | 20:05:03 | 78 | 20:40:05 | 79 | 92 | 20:57:03 | 86 | 20:00:00 | 91.6 | 0 | 0.0 | 0 | 0 | 86 | 85 | 86 | 85 |
| 08/25/2026 | 22:00:00 | 237 | 79 | 21:00:05 | 78 | 21:54:02 | 78 | 92 | 21:58:00 | 91 | 21:13:03 | 91.8 | 0 | 0.0 | 0 | 0 | 85 | 84 | 85 | 85 |
| 08/25/2026 | 23:00:00 | 237 | 78 | 22:00:01 | 77 | 22:59:03 | 77 | 92 | 22:45:05 | 92 | 22:29:05 | 91.7 | 0 | 0.0 | 0 | 0 | 84 | 84 | 85 | 84 |
| 08/26/2026 | 0:00:00 | 238 | 77 | 23:00:02 | 75 | 23:47:03 | 76 | 94 | 23:59:05 | 91 | 23:11:02 | 94.1 | 0 | 0.0 | 0 | 0 | 84 | 83 | 84 | 84 |
| 08/26/2026 | 1:00:00 | 238 | 76 | 0:02:02 | 75 | 0:55:00 | 75 | 95 | 0:57:05 | 93 | 0:13:05 | 94.1 | 0 | 0.0 | 0 | 0 | 83 | 83 | 84 | 84 |
| 08/26/2026 | 2:00:00 | 238 | 75 | 1:00:00 | 73 | 1:55:04 | 73 | 95 | 1:35:00 | 94 | 1:02:01 | 95 | 0 | 0.0 | 0 | 0 | 83 | 82 | 83 | 83 |
| 08/26/2026 | 3:00:00 | 238 | 74 | 2:12:02 | 73 | 2:59:02 | 73 | 96 | 2:09:03 | 95 | 2:22:01 | 95 | 0 | 0.0 | 0 | 0 | 82 | 82 | 83 | 83 |
| 08/26/2026 | 4:00:00 | 238 | 74 | 3:21:01 | 72 | 3:47:03 | 72 | 96 | 3:52:05 | 95 | 3:44:01 | 95 | 0 | 0.0 | 0 | 0 | 82 | 81 | 83 | 82 |
| 08/26/2026 | 5:00:00 | 238 | 73 | 4:25:02 | 71 | 4:56:01 | 71 | 96 | 4:19:00 | 95 | 4:50:02 | 95.7 | 0 | 0.0 | 0 | 0 | 81 | 81 | 82 | 82 |
| 08/26/2026 | 6:00:00 | 238 | 72 | 5:58:02 | 70 | 5:38:01 | 72 | 97 | 5:54:03 | 95 | 5:12:00 | 96.7 | 0 | 0.0 | 0 | 0 | 81 | 81 | 82 | 82 |
| 08/26/2026 | 7:00:00 | 238 | 75 | 6:57:02 | 72 | 6:00:01 | 75 | 97 | 6:19:01 | 96 | 6:25:00 | 96.4 | 0 | 0.0 | 0 | 10 | 81 | 81 | 82 | 81 |
| 08/26/2026 | 8:00:00 | 238 | 82 | 8:00:00 | 75 | 7:03:00 | 82 | 97 | 7:09:05 | 82 | 7:58:03 | 82.5 | 0 | 0.0 | 0 | 25 | 81 | 81 | 81 | 81 |
| 08/26/2026 | 9:00:00 | 238 | 88 | 8:58:01 | 82 | 8:00:02 | 88 | 83 | 8:00:01 | 70 | 8:59:01 | 70.9 | 0 | 0.0 | 0 | 39 | 81 | 82 | 82 | 82 |
| 08/26/2026 | 10:00:00 | 238 | 92 | 9:59:04 | 88 | 9:13:04 | 92 | 72 | 9:03:02 | 63 | 9:59:00 | 63.3 | 0 | 0.0 | 290 | 50 | 84 | 85 | 82 | 83 |
| 08/26/2026 | 11:00:00 | 238 | 94 | 10:56:00 | 91 | 10:10:04 | 93 | 64 | 10:00:04 | 57 | 10:59:02 | 58.24 | 0 | 0.0 | 264 | 57 | 87 | 89 | 84 | 84 |
| 08/26/2026 | 12:00:00 | 238 | 97 | 12:00:00 | 93 | 11:00:00 | 97 | 59 | 11:00:03 | 51 | 11:55:05 | 52.9 | 0 | 0.0 | 230 | 63 | 90 | 92 | 85 | 86 |
| 08/26/2026 | 13:00:00 | 238 | 99 | 12:57:05 | 96 | 12:04:04 | 99 | 54 | 12:03:05 | 35 | 12:55:04 | 41.15 | 0 | 0.0 | 0 | 63 | 93 | 94 | 87 | 87 |
| 08/26/2026 | 14:00:00 | 238 | 100 | 13:58:03 | 98 | 13:29:04 | 100 | 46 | 13:36:05 | 39 | 13:09:04 | 43.44 | 0 | 0.0 | 207 | 47 | 95 | 96 | 88 | 89 |
| 08/26/2026 | 15:00:00 | 238 | 100 | 14:21:04 | 98 | 14:38:00 | 100 | 45 | 14:38:03 | 42 | 14:22:02 | 43.86 | 0 | 0.0 | 0 | 37 | 96 | 97 | 89 | 90 |
| 08/26/2026 | 16:00:00 | 238 | 100 | 15:02:02 | 99 | 15:41:05 | 99 | 45 | 15:31:03 | 42 | 15:59:00 | 42.34 | 0 | 0.0 | 218 | 20 | 97 | 97 | 90 | 90 |
| 08/26/2026 | 17:00:00 | 238 | 99 | 16:01:00 | 97 | 16:15:01 | 97 | 46 | 16:56:05 | 41 | 16:06:05 | 46.01 | 0 | 0.0 | 169 | 17 | 96 | 96 | 90 | 90 |
| 08/26/2026 | 18:00:00 | 238 | 97 | 17:00:00 | 92 | 17:59:04 | 92 | 57 | 18:00:00 | 45 | 17:01:00 | 56.63 | 0 | 0.0 | 0 | 5 | 95 | 94 | 90 | 90 |
| 08/26/2026 | 19:00:00 | 238 | 92 | 18:00:00 | 86 | 18:59:00 | 86 | 71 | 18:57:04 | 57 | 18:00:00 | 70.79 | 0 | 0.0 | 0 | 0 | 94 | 93 | 90 | 90 |
| 08/26/2026 | 20:00:00 | 238 | 87 | 19:48:02 | 85 | 19:20:04 | 87 | 73 | 19:22:04 | 67 | 19:50:00 | 69.08 | 0 | 0.0 | 0 | 0 | 92 | 91 | 89 | 89 |
| 08/26/2026 | 21:00:00 | 238 | 87 | 20:00:00 | 83 | 20:58:00 | 83 | 77 | 20:59:04 | 69 | 20:00:04 | 77.13 | 0 | 0.0 | 0 | 0 | 91 | 90 | 88 | 88 |
| 08/26/2026 | 22:00:00 | 238 | 83 | 21:00:04 | 82 | 21:58:01 | 82 | 81 | 22:00:00 | 77 | 21:00:05 | 80.8 | 0 | 0.0 | 0 | 0 | 90 | 89 | 88 | 87 |
| 08/26/2026 | 23:00:00 | 238 | 82 | 22:58:05 | 81 | 22:29:04 | 82 | 83 | 22:27:04 | 79 | 22:59:04 | 79.49 | 0 | 0.0 | 0 | 0 | 89 | 89 | 87 | 87 |
| 08/27/2026 | 0:00:00 | 239 | 82 | 23:00:01 | 82 | 23:49:03 | 82 | 85 | 23:56:03 | 79 | 23:00:03 | 84.5 | 0 | 0.0 | 0 | 0 | 88 | 88 | 87 | 86 |
| 08/27/2026 | 1:00:00 | 239 | 83 | 0:09:01 | 82 | 0:59:04 | 82 | 85 | 0:58:03 | 83 | 0:13:02 | 84.8 | 0 | 0.0 | 0 | 0 | 88 | 87 | 86 | 86 |
| 08/27/2026 | 2:00:00 | 239 | 83 | 1:40:01 | 79 | 2:00:00 | 79 | 85 | 1:04:05 | 78 | 1:57:02 | 82.3 | 0 | 0.3 | 309 | 0 | 87 | 87 | 86 | 87 |
| 08/27/2026 | 3:00:00 | 239 | 79 | 2:00:00 | 74 | 2:36:05 | 74 | 92 | 2:32:03 | 82 | 2:00:00 | 92 | 0.17 | 1.9 | 312 | 0 | 86 | 85 | 86 | 84 |
| 08/27/2026 | 4:00:00 | 239 | 74 | 3:00:05 | 73 | 3:47:03 | 73 | 94 | 3:57:00 | 92 | 3:00:01 | 94 | 0.11 | 0.0 | 0 | 0 | 85 | 84 | 85 | 85 |
| 08/27/2026 | 5:00:00 | 239 | 74 | 4:45:05 | 73 | 4:24:04 | 73 | 95 | 4:58:05 | 94 | 4:01:05 | 95 | 0.05 | 0.0 | 0 | 0 | 83 | 83 | 84 | 83 |
| 08/27/2026 | 6:00:00 | 239 | 73 | 5:00:02 | 73 | 5:34:01 | 73 | 96 | 5:51:03 | 95 | 5:00:04 | 95.5 | 0.01 | 0.0 | 0 | 0 | 83 | 82 | 83 | 82 |
| 08/27/2026 | 7:00:00 | 239 | 74 | 6:58:05 | 73 | 6:12:01 | 74 | 96 | 6:32:01 | 95 | 6:52:02 | 95.8 | 0 | 0.0 | 0 | 3 | 82 | 82 | 82 | 83 |
| 08/27/2026 | 8:00:00 | 239 | 74 | 7:46:05 | 74 | 7:03:00 | 74 | 96 | 7:00:00 | 95 | 8:00:00 | 94.5 | 0 | 0.0 | 0 | 10 | 82 | 82 | 83 | 83 |
| 08/27/2026 | 9:00:00 | 239 | 76 | 8:59:05 | 74 | 8:00:01 | 76 | 95 | 8:18:05 | 93 | 8:52:03 | 93.4 | 0 | 0.2 | 84 | 11 | 83 | 83 | 83 | 83 |
| 08/27/2026 | 10:00:00 | 239 | 81 | 10:00:00 | 76 | 9:00:05 | 81 | 93 | 9:01:03 | 74 | 9:57:00 | 77.95 | 0 | 2.7 | 101 | 39 | 84 | 85 | 83 | 84 |
| 08/27/2026 | 11:00:00 | 239 | 86 | 10:58:02 | 81 | 10:00:00 | 86 | 78 | 10:00:00 | 64 | 10:59:00 | 66.85 | 0 | 2.4 | 129 | 62 | 86 | 88 | 83 | 85 |
| 08/27/2026 | 12:00:00 | 239 | 89 | 11:36:01 | 84 | 11:55:00 | 86 | 71 | 11:58:04 | 62 | 11:32:02 | 66.69 | 0 | 2.5 | 229 | 53 | 89 | 90 | 86 | 87 |
| 08/27/2026 | 13:00:00 | 239 | 90 | 12:57:03 | 86 | 12:00:01 | 90 | 68 | 12:01:02 | 57 | 12:11:05 | 61.09 | 0 | 3.4 | 258 | 68 | 91 | 92 | 87 | 88 |
| 08/27/2026 | 14:00:00 | 239 | 91 | 13:46:02 | 88 | 13:05:02 | 90 | 65 | 13:07:01 | 56 | 13:55:01 | 58.26 | 0 | 4.2 | 253 | 56 | 92 | 93 | 89 | 89 |
| 08/27/2026 | 15:00:00 | 239 | 92 | 14:54:02 | 90 | 14:22:05 | 92 | 60 | 14:04:04 | 51 | 14:56:00 | 53.54 | 0 | 3.4 | 302 | 39 | 93 | 94 | 89 | 90 |
| 08/27/2026 | 16:00:00 | 239 | 92 | 15:08:02 | 90 | 15:33:04 | 91 | 57 | 15:33:02 | 52 | 15:01:01 | 55.82 | 0 | 2.6 | 321 | 23 | 94 | 93 | 90 | 90 |
| 08/27/2026 | 17:00:00 | 239 | 92 | 16:41:02 | 90 | 16:27:03 | 91 | 57 | 16:54:03 | 52 | 16:18:03 | 55.1 | 0 | 2.2 | 313 | 13 | 93 | 93 | 90 | 90 |
| 08/27/2026 | 18:00:00 | 239 | 91 | 17:02:00 | 88 | 17:59:05 | 88 | 64 | 18:00:00 | 53 | 17:17:00 | 64.26 | 0 | 1.4 | 333 | 3 | 92 | 91 | 90 | 90 |
| 08/27/2026 | 19:00:00 | 239 | 88 | 18:00:00 | 80 | 18:59:01 | 80 | 82 | 19:00:00 | 64 | 18:00:04 | 82 | 0 | 1.0 | 10 | 1 | 91 | 90 | 90 | 89 |
| 08/27/2026 | 20:00:00 | 239 | 80 | 19:00:01 | 77 | 19:59:02 | 77 | 87 | 19:58:01 | 82 | 19:00:00 | 87.3 | 0 | 0.1 | 2 | 0 | 89 | 88 | 89 | 88 |
| 08/27/2026 | 21:00:00 | 239 | 77 | 20:00:01 | 76 | 20:58:04 | 76 | 90 | 20:59:05 | 87 | 20:00:01 | 90.3 | 0 | 0.0 | 0 | 0 | 87 | 87 | 88 | 87 |
| 08/27/2026 | 22:00:00 | 239 | 76 | 21:00:04 | 75 | 21:38:05 | 75 | 92 | 21:54:00 | 90 | 21:00:00 | 91.9 | 0 | 0.0 | 0 | 0 | 86 | 86 | 87 | 86 |
| 08/27/2026 | 23:00:00 | 239 | 76 | 22:37:02 | 75 | 22:08:00 | 75 | 94 | 22:58:04 | 92 | 22:06:02 | 93.3 | 0 | 0.0 | 0 | 0 | 85 | 85 | 86 | 86 |
| 08/28/2026 | 0:00:00 | 240 | 75 | 23:00:01 | 74 | 23:59:05 | 75 | 94 | 23:51:03 | 93 | 23:02:05 | 93.5 | 0 | 0.0 | 0 | 0 | 84 | 84 | 85 | 85 |
| 08/28/2026 | 1:00:00 | 240 | 75 | 0:12:03 | 74 | 0:54:03 | 74 | 94 | 0:57:04 | 94 | 0:00:02 | 94.2 | 0 | 0.0 | 0 | 0 | 84 | 83 | 85 | 84 |
| 08/28/2026 | 2:00:00 | 240 | 75 | 1:20:00 | 74 | 1:55:00 | 74 | 95 | 2:00:00 | 94 | 1:02:05 | 94.9 | 0 | 0.0 | 0 | 0 | 83 | 83 | 84 | 84 |
| 08/28/2026 | 3:00:00 | 240 | 74 | 2:01:02 | 73 | 2:58:03 | 73 | 95 | 2:33:04 | 95 | 2:30:00 | 94.7 | 0 | 0.0 | 0 | 0 | 82 | 82 | 84 | 83 |
| 08/28/2026 | 4:00:00 | 240 | 73 | 3:00:01 | 73 | 3:59:05 | 73 | 95 | 3:24:02 | 95 | 3:00:00 | 95.2 | 0 | 0.0 | 0 | 0 | 82 | 82 | 83 | 83 |
| 08/28/2026 | 5:00:00 | 240 | 73 | 4:29:00 | 73 | 4:16:03 | 73 | 96 | 4:28:00 | 95 | 4:00:01 | 95.5 | 0 | 0.0 | 0 | 0 | 81 | 81 | 83 | 83 |
| 08/28/2026 | 6:00:00 | 240 | 73 | 5:05:03 | 72 | 5:46:03 | 72 | 96 | 5:52:00 | 95 | 5:21:03 | 95.6 | 0 | 0.0 | 0 | 0 | 81 | 81 | 82 | 82 |
| 08/28/2026 | 7:00:00 | 240 | 75 | 6:59:03 | 72 | 6:00:05 | 75 | 97 | 6:58:04 | 96 | 6:00:02 | 97 | 0 | 0.0 | 0 | 5 | 81 | 81 | 82 | 82 |
| 08/28/2026 | 8:00:00 | 240 | 81 | 7:59:04 | 75 | 7:00:00 | 81 | 97 | 7:28:03 | 83 | 7:59:01 | 83.2 | 0 | 0.5 | 316 | 5 | 81 | 81 | 82 | 82 |
| 08/28/2026 | 9:00:00 | 240 | 88 | 8:57:05 | 81 | 8:00:00 | 88 | 84 | 8:00:02 | 63 | 8:58:04 | 64.55 | 0 | 1.4 | 346 | 19 | 82 | 83 | 82 | 82 |
| 08/28/2026 | 10:00:00 | 240 | 91 | 9:58:03 | 87 | 9:01:05 | 91 | 65 | 9:02:03 | 58 | 9:59:04 | 58.63 | 0 | 2.3 | 335 | 30 | 84 | 86 | 82 | 83 |
| 08/28/2026 | 11:00:00 | 240 | 93 | 10:51:02 | 91 | 10:03:05 | 92 | 59 | 10:00:03 | 53 | 10:52:03 | 54.14 | 0 | 3.1 | 11 | 44 | 88 | 89 | 83 | 85 |
| 08/28/2026 | 12:00:00 | 240 | 94 | 11:59:05 | 91 | 11:16:04 | 94 | 56 | 11:41:01 | 50 | 11:52:00 | 50.8 | 0 | 3.2 | 25 | 42 | 90 | 91 | 86 | 87 |
| 08/28/2026 | 13:00:00 | 240 | 96 | 12:25:00 | 94 | 12:50:03 | 95 | 52 | 12:14:00 | 44 | 12:34:00 | 48.97 | 0 | 2.8 | 27 | 47 | 93 | 94 | 88 | 88 |
| 08/28/2026 | 14:00:00 | 240 | 98 | 13:20:03 | 92 | 13:59:04 | 92 | 54 | 13:58:01 | 42 | 13:24:05 | 52.69 | 0 | 2.7 | 8 | 32 | 94 | 94 | 89 | 90 |
| 08/28/2026 | 15:00:00 | 240 | 96 | 14:43:05 | 91 | 14:14:03 | 94 | 58 | 14:19:00 | 49 | 14:44:00 | 50.63 | 0 | 2.4 | 335 | 33 | 94 | 94 | 90 | 90 |
| 08/28/2026 | 16:00:00 | 240 | 96 | 15:47:00 | 94 | 15:27:04 | 95 | 53 | 15:28:01 | 49 | 15:47:02 | 49.98 | 0 | 2.2 | 4 | 27 | 94 | 94 | 90 | 90 |
| 08/28/2026 | 17:00:00 | 240 | 95 | 16:00:00 | 93 | 16:53:04 | 93 | 54 | 16:14:03 | 49 | 16:34:02 | 50.89 | 0 | 2.3 | 8 | 14 | 94 | 93 | 90 | 91 |
| 08/28/2026 | 18:00:00 | 240 | 93 | 17:03:03 | 89 | 17:59:05 | 89 | 63 | 18:00:00 | 51 | 17:00:04 | 62.62 | 0 | 1.5 | 4 | 4 | 93 | 92 | 90 | 90 |
| 08/28/2026 | 19:00:00 | 240 | 89 | 18:00:01 | 81 | 18:59:05 | 81 | 80 | 19:00:00 | 61 | 18:03:01 | 80.4 | 0 | 0.2 | 12 | 1 | 91 | 90 | 90 | 89 |
| 08/28/2026 | 20:00:00 | 240 | 81 | 19:00:01 | 78 | 19:59:05 | 78 | 87 | 19:58:01 | 81 | 19:00:01 | 87.2 | 0 | 0.1 | 42 | 0 | 89 | 88 | 89 | 88 |
| 08/28/2026 | 21:00:00 | 240 | 78 | 20:00:01 | 77 | 20:47:02 | 78 | 89 | 20:46:05 | 87 | 20:58:01 | 87.2 | 0 | 0.7 | 24 | 0 | 88 | 87 | 88 | 87 |
| 08/28/2026 | 22:00:00 | 240 | 78 | 21:00:05 | 76 | 21:59:05 | 76 | 90 | 22:00:00 | 87 | 21:04:02 | 89.8 | 0 | 0.7 | 19 | 0 | 87 | 86 | 87 | 87 |
| 08/28/2026 | 23:00:00 | 240 | 76 | 22:00:01 | 75 | 22:59:02 | 75 | 92 | 22:59:01 | 90 | 22:07:03 | 91.7 | 0 | 0.0 | 0 | 0 | 86 | 85 | 86 | 86 |
| 08/29/2026 | 0:00:00 | 241 | 76 | 23:26:03 | 75 | 23:47:05 | 76 | 93 | 23:14:05 | 91 | 23:45:03 | 92.2 | 0 | 0.0 | 37 | 0 | 85 | 84 | 85 | 85 |
| 08/29/2026 | 1:00:00 | 241 | 76 | 0:20:00 | 76 | 0:00:00 | 76 | 92 | 0:00:02 | 90 | 0:24:05 | 90.9 | 0 | 0.2 | 41 | 0 | 84 | 84 | 85 | 85 |
| 08/29/2026 | 2:00:00 | 241 | 76 | 1:41:01 | 76 | 1:59:05 | 76 | 91 | 1:18:02 | 89 | 1:49:01 | 88.9 | 0 | 1.4 | 39 | 0 | 83 | 83 | 84 | 84 |
| 08/29/2026 | 3:00:00 | 241 | 76 | 2:02:02 | 74 | 2:58:01 | 74 | 91 | 2:56:03 | 89 | 2:02:01 | 91.3 | 0 | 1.3 | 44 | 0 | 83 | 83 | 84 | 84 |
| 08/29/2026 | 4:00:00 | 241 | 74 | 3:00:02 | 74 | 3:52:05 | 74 | 92 | 3:59:00 | 91 | 3:00:00 | 92.2 | 0 | 0.1 | 21 | 0 | 82 | 82 | 83 | 83 |
| 08/29/2026 | 5:00:00 | 241 | 74 | 4:19:02 | 73 | 4:45:05 | 73 | 92 | 4:07:03 | 91 | 4:38:05 | 91.5 | 0 | 0.8 | 31 | 0 | 82 | 82 | 83 | 83 |
| 08/29/2026 | 6:00:00 | 241 | 73 | 5:00:02 | 71 | 5:56:05 | 72 | 92 | 5:59:05 | 91 | 5:16:05 | 92.3 | 0 | 0.0 | 27 | 0 | 81 | 81 | 83 | 82 |
| 08/29/2026 | 7:00:00 | 241 | 75 | 6:59:05 | 71 | 6:02:04 | 75 | 95 | 6:46:05 | 92 | 6:59:05 | 92.1 | 0 | 0.0 | 93 | 8 | 81 | 81 | 82 | 82 |
| 08/29/2026 | 8:00:00 | 241 | 81 | 7:56:05 | 75 | 7:00:00 | 81 | 92 | 7:00:01 | 72 | 7:57:05 | 72.52 | 0 | 1.2 | 63 | 14 | 81 | 81 | 82 | 82 |
| 08/29/2026 | 9:00:00 | 241 | 86 | 8:59:05 | 81 | 8:05:00 | 86 | 73 | 8:00:05 | 60 | 8:59:05 | 60.01 | 0 | 1.9 | 40 | 34 | 81 | 82 | 82 | 82 |
| 08/29/2026 | 10:00:00 | 241 | 90 | 9:58:05 | 86 | 9:00:00 | 90 | 62 | 9:02:00 | 52 | 9:59:03 | 52.59 | 0 | 2.2 | 34 | 48 | 84 | 85 | 82 | 83 |
| 08/29/2026 | 11:00:00 | 241 | 95 | 10:55:01 | 90 | 10:01:03 | 94 | 53 | 10:00:01 | 40 | 10:55:03 | 42.08 | 0 | 2.8 | 66 | 54 | 87 | 89 | 84 | 85 |
| 08/29/2026 | 12:00:00 | 241 | 97 | 11:52:04 | 94 | 11:32:03 | 97 | 44 | 11:17:02 | 37 | 11:58:05 | 38.52 | 0 | 2.6 | 28 | 54 | 91 | 92 | 86 | 87 |
| 08/29/2026 | 13:00:00 | 241 | 99 | 12:47:01 | 94 | 12:59:05 | 94 | 43 | 12:59:02 | 37 | 12:21:03 | 42.94 | 0 | 2.1 | 21 | 55 | 94 | 95 | 88 | 89 |
| 08/29/2026 | 14:00:00 | 241 | 99 | 13:47:03 | 93 | 13:07:00 | 97 | 47 | 13:06:05 | 37 | 13:50:04 | 39.22 | 0 | 2.1 | 46 | 47 | 95 | 96 | 90 | 90 |
| 08/29/2026 | 15:00:00 | 241 | 98 | 14:34:05 | 96 | 14:56:02 | 96 | 41 | 14:03:03 | 37 | 14:29:02 | 39.86 | 0 | 2.6 | 26 | 37 | 96 | 97 | 91 | 92 |
| 08/29/2026 | 16:00:00 | 241 | 97 | 15:22:00 | 96 | 16:00:00 | 96 | 42 | 15:59:03 | 38 | 15:10:00 | 40.82 | 0 | 2.5 | 29 | 17 | 97 | 97 | 92 | 92 |
| 08/29/2026 | 17:00:00 | 241 | 96 | 16:04:02 | 94 | 16:59:01 | 94 | 45 | 16:49:00 | 40 | 16:01:03 | 45.06 | 0 | 2.4 | 41 | 9 | 96 | 96 | 92 | 92 |
| 08/29/2026 | 18:00:00 | 241 | 94 | 17:03:01 | 91 | 18:00:00 | 91 | 53 | 17:59:05 | 44 | 17:12:04 | 52.7 | 0 | 1.3 | 37 | 4 | 95 | 94 | 92 | 92 |
| 08/29/2026 | 19:00:00 | 241 | 91 | 18:00:02 | 80 | 19:00:00 | 80 | 73 | 18:58:01 | 52 | 18:00:04 | 72.75 | 0 | 0.9 | 18 | 0 | 93 | 92 | 91 | 91 |
| 08/29/2026 | 20:00:00 | 241 | 80 | 19:00:00 | 76 | 19:55:04 | 77 | 84 | 20:00:00 | 72 | 19:00:02 | 83.8 | 0 | 0.3 | 20 | 0 | 91 | 90 | 90 | 90 |
| 08/29/2026 | 21:00:00 | 241 | 77 | 20:01:00 | 74 | 20:56:04 | 74 | 87 | 20:46:03 | 82 | 20:08:05 | 87.3 | 0 | 0.0 | 0 | 0 | 89 | 88 | 89 | 89 |
| 08/29/2026 | 22:00:00 | 241 | 75 | 21:00:00 | 72 | 21:56:03 | 73 | 90 | 21:59:05 | 87 | 21:00:05 | 89.7 | 0 | 0.0 | 0 | 0 | 88 | 87 | 88 | 87 |
| 08/29/2026 | 23:00:00 | 241 | 73 | 22:06:04 | 71 | 22:48:03 | 72 | 91 | 22:59:03 | 90 | 22:00:01 | 91.3 | 0 | 0.0 | 0 | 0 | 86 | 86 | 87 | 86 |
| 08/30/2026 | 0:00:00 | 242 | 72 | 23:00:00 | 71 | 23:59:05 | 71 | 92 | 23:32:05 | 91 | 23:52:05 | 91.5 | 0 | 0.0 | 128 | 0 | 85 | 85 | 86 | 86 |
| 08/30/2026 | 1:00:00 | 242 | 71 | 0:15:02 | 70 | 0:56:01 | 71 | 92 | 0:46:03 | 91 | 0:01:02 | 92.1 | 0 | 0.0 | 0 | 0 | 84 | 84 | 85 | 85 |
| 08/30/2026 | 2:00:00 | 242 | 71 | 1:21:05 | 70 | 1:03:04 | 70 | 93 | 1:14:01 | 91 | 1:38:00 | 91.6 | 0 | 0.0 | 0 | 0 | 83 | 83 | 85 | 84 |
| 08/30/2026 | 3:00:00 | 242 | 71 | 2:55:01 | 70 | 2:15:04 | 71 | 92 | 2:19:01 | 91 | 2:59:03 | 90.8 | 0 | 0.1 | 33 | 0 | 83 | 82 | 84 | 84 |
| 08/30/2026 | 4:00:00 | 242 | 71 | 3:00:03 | 70 | 3:21:02 | 70 | 92 | 3:32:01 | 91 | 3:05:01 | 91.1 | 0 | 0.0 | 31 | 0 | 82 | 82 | 83 | 83 |
| 08/30/2026 | 5:00:00 | 242 | 70 | 4:00:00 | 70 | 4:59:02 | 70 | 93 | 4:49:02 | 91 | 4:00:00 | 92.5 | 0 | 0.0 | 0 | 0 | 81 | 81 | 83 | 83 |
| 08/30/2026 | 6:00:00 | 242 | 70 | 5:18:02 | 69 | 5:41:04 | 70 | 94 | 5:47:03 | 93 | 5:03:01 | 93.5 | 0 | 0.0 | 0 | 0 | 81 | 81 | 82 | 82 |
| 08/30/2026 | 7:00:00 | 242 | 74 | 6:59:04 | 70 | 6:00:03 | 74 | 95 | 6:28:05 | 93 | 7:00:00 | 93.1 | 0 | 0.0 | 278 | 8 | 81 | 81 | 82 | 82 |
| 08/30/2026 | 8:00:00 | 242 | 80 | 7:59:05 | 74 | 7:00:00 | 80 | 93 | 7:00:01 | 80 | 7:59:00 | 80.7 | 0 | 0.9 | 53 | 14 | 81 | 81 | 82 | 82 |
| 08/30/2026 | 9:00:00 | 242 | 87 | 8:58:00 | 81 | 8:00:00 | 87 | 81 | 8:04:03 | 68 | 8:58:03 | 68.33 | 0 | 1.3 | 81 | 37 | 82 | 83 | 82 | 82 |
| 08/30/2026 | 10:00:00 | 242 | 91 | 9:59:04 | 87 | 9:00:02 | 91 | 69 | 9:01:00 | 54 | 9:55:00 | 55.75 | 0 | 1.6 | 82 | 52 | 84 | 86 | 82 | 83 |
| 08/30/2026 | 11:00:00 | 242 | 94 | 10:59:05 | 91 | 10:14:03 | 94 | 57 | 10:14:03 | 48 | 10:59:05 | 47.54 | 0 | 2.5 | 72 | 57 | 88 | 90 | 84 | 85 |
| 08/30/2026 | 12:00:00 | 242 | 97 | 11:45:02 | 93 | 11:58:00 | 94 | 51 | 11:58:01 | 45 | 11:06:03 | 46.43 | 0 | 2.9 | 56 | 60 | 91 | 93 | 86 | 87 |
| 08/30/2026 | 13:00:00 | 242 | 97 | 13:00:00 | 94 | 12:00:00 | 97 | 52 | 12:14:02 | 46 | 12:59:05 | 45.75 | 0 | 3.0 | 40 | 52 | 95 | 96 | 88 | 89 |
| 08/30/2026 | 14:00:00 | 242 | 98 | 13:24:03 | 93 | 13:47:04 | 95 | 53 | 13:49:01 | 43 | 13:04:02 | 49.65 | 0 | 2.7 | 39 | 42 | 97 | 97 | 90 | 91 |
| 08/30/2026 | 15:00:00 | 242 | 98 | 14:48:00 | 92 | 14:26:02 | 93 | 55 | 14:23:05 | 46 | 14:45:00 | 51.45 | 0 | 2.0 | 43 | 25 | 97 | 96 | 91 | 92 |
| 08/30/2026 | 16:00:00 | 242 | 96 | 15:54:02 | 92 | 15:13:03 | 95 | 53 | 15:17:05 | 48 | 15:54:04 | 48.74 | 0 | 2.2 | 331 | 26 | 96 | 96 | 92 | 92 |
| 08/30/2026 | 17:00:00 | 242 | 95 | 16:00:00 | 90 | 16:59:03 | 90 | 59 | 17:00:00 | 49 | 16:00:00 | 58.74 | 0 | 1.7 | 20 | 5 | 96 | 95 | 92 | 92 |
| 08/30/2026 | 18:00:00 | 242 | 90 | 17:00:01 | 89 | 17:46:02 | 89 | 64 | 17:53:03 | 57 | 17:07:02 | 62.93 | 0 | 0.7 | 10 | 4 | 94 | 93 | 91 | 91 |
| 08/30/2026 | 19:00:00 | 242 | 89 | 18:00:00 | 84 | 18:59:05 | 84 | 73 | 19:00:00 | 63 | 18:00:03 | 73.3 | 0 | 1.1 | 102 | 1 | 92 | 91 | 91 | 90 |
| 08/30/2026 | 20:00:00 | 242 | 84 | 19:00:00 | 80 | 19:59:04 | 80 | 81 | 20:00:00 | 73 | 19:00:00 | 81.2 | 0 | 0.2 | 317 | 0 | 91 | 90 | 90 | 89 |
| 08/30/2026 | 21:00:00 | 242 | 80 | 20:00:03 | 78 | 21:00:00 | 78 | 86 | 20:56:02 | 81 | 20:02:02 | 86.2 | 0 | 0.1 | 330 | 0 | 89 | 89 | 89 | 88 |
| 08/30/2026 | 22:00:00 | 242 | 78 | 21:00:02 | 76 | 21:54:02 | 77 | 90 | 21:59:05 | 86 | 21:00:03 | 89.7 | 0 | 0.0 | 0 | 0 | 88 | 88 | 88 | 87 |
| 08/30/2026 | 23:00:00 | 242 | 77 | 22:00:03 | 76 | 22:27:04 | 76 | 92 | 22:59:01 | 90 | 22:25:04 | 91.4 | 0 | 0.0 | 0 | 0 | 87 | 87 | 87 | 87 |
| 08/31/2026 | 0:00:00 | 243 | 76 | 23:03:04 | 76 | 0:00:00 | 76 | 92 | 23:49:02 | 91 | 23:01:00 | 92 | 0 | 0.0 | 0 | 0 | 86 | 86 | 86 | 86 |
| 08/31/2026 | 1:00:00 | 243 | 76 | 0:00:01 | 75 | 0:55:04 | 75 | 93 | 0:58:05 | 92 | 0:16:04 | 92.5 | 0 | 0.0 | 0 | 0 | 85 | 85 | 86 | 86 |
| 08/31/2026 | 2:00:00 | 243 | 75 | 1:24:03 | 74 | 1:57:00 | 74 | 94 | 1:59:02 | 93 | 1:00:01 | 93.6 | 0 | 0.0 | 0 | 0 | 85 | 84 | 85 | 85 |
| 08/31/2026 | 3:00:00 | 243 | 74 | 2:04:02 | 73 | 2:36:00 | 74 | 95 | 2:47:01 | 93 | 2:13:03 | 94.3 | 0 | 0.0 | 0 | 0 | 84 | 84 | 85 | 84 |
| 08/31/2026 | 4:00:00 | 243 | 74 | 3:00:00 | 73 | 3:59:00 | 73 | 95 | 3:33:03 | 94 | 3:09:05 | 94.6 | 0 | 0.0 | 0 | 0 | 83 | 83 | 84 | 84 |
| 08/31/2026 | 5:00:00 | 243 | 73 | 4:49:00 | 72 | 4:30:02 | 72 | 96 | 4:48:01 | 95 | 4:23:02 | 95.1 | 0 | 0.0 | 0 | 0 | 83 | 83 | 84 | 83 |
| 08/31/2026 | 6:00:00 | 243 | 73 | 5:59:05 | 72 | 5:01:00 | 73 | 96 | 5:12:03 | 95 | 5:01:05 | 95.8 | 0 | 0.0 | 28 | 0 | 82 | 82 | 83 | 83 |
| 08/31/2026 | 7:00:00 | 243 | 76 | 6:59:03 | 73 | 6:01:00 | 76 | 96 | 6:31:05 | 94 | 7:00:00 | 94.1 | 0 | 0.0 | 0 | 9 | 82 | 82 | 83 | 83 |
| 08/31/2026 | 8:00:00 | 243 | 82 | 8:00:00 | 76 | 7:00:00 | 82 | 94 | 7:00:00 | 81 | 7:58:00 | 81.1 | 0 | 1.6 | 68 | 24 | 82 | 82 | 83 | 83 |
| 08/31/2026 | 9:00:00 | 243 | 87 | 8:59:05 | 82 | 8:00:00 | 87 | 81 | 8:00:00 | 70 | 8:56:02 | 69.79 | 0 | 2.9 | 77 | 42 | 83 | 84 | 83 | 83 |
| 08/31/2026 | 10:00:00 | 243 | 91 | 9:59:02 | 87 | 9:22:03 | 91 | 69 | 9:00:04 | 60 | 9:59:03 | 60.07 | 0 | 3.0 | 57 | 41 | 85 | 86 | 83 | 84 |
| 08/31/2026 | 11:00:00 | 243 | 93 | 10:42:03 | 89 | 10:30:03 | 92 | 63 | 10:34:02 | 56 | 10:43:00 | 56.99 | 0 | 3.5 | 65 | 41 | 88 | 89 | 84 | 85 |
| 08/31/2026 | 12:00:00 | 243 | 95 | 11:57:05 | 92 | 11:23:02 | 95 | 59 | 11:02:04 | 49 | 11:58:00 | 50.54 | 0 | 3.4 | 72 | 51 | 91 | 92 | 86 | 87 |
| 08/31/2026 | 13:00:00 | 243 | 97 | 12:43:05 | 93 | 12:28:01 | 95 | 52 | 12:28:04 | 46 | 12:40:02 | 48.55 | 0 | 4.1 | 69 | 54 | 93 | 95 | 88 | 89 |
| 08/31/2026 | 14:00:00 | 243 | 98 | 13:59:05 | 94 | 13:29:00 | 98 | 50 | 13:29:05 | 44 | 13:17:03 | 45.06 | 0 | 4.4 | 72 | 54 | 96 | 96 | 90 | 91 |
| 08/31/2026 | 15:00:00 | 243 | 98 | 14:00:03 | 93 | 14:48:05 | 96 | 51 | 14:13:05 | 45 | 14:01:01 | 48.34 | 0 | 3.7 | 70 | 30 | 97 | 97 | 91 | 92 |
| Average | 83.11 | 80.54 | 81.86 | 80.14 | 74.45 | 77.28 | 0 | 0.72 | 13.84 | 86.8 | 86.81 | 85.65 | 85.68 | |||||||
| Total | 0.35 |